San Antonio de Obligado, Argentina
Current Conditions -  °F | °C
As of 7:00 PM on Monday 24 Nov 2014 (Local Time) from SARE Reporting Station
Scattered Clouds Scattered Clouds  
Wind Chill: 91°   Ceiling: Unl
Heat Index: 97°   Visibility: 6mi
Dew Point: 70°   Wind: 2mph
Humidity: 49%   Direction: 360°N
Pressure: 29.59"   Gusts: NA
Location:  28.39°S, 59.29°W
Report Text: SARE 242200Z 36002KT 9999 FEW025 SCT200 33/21 Q1002
Loading
Personal Weather Stations






























Interactive Weather Map New forecast layout! Learn more

10-Day Weather Forecast

Advertisements
Track Severe Weather on mobile